Time;durP1;ratioP1;P1;durP2;ratioP2;P2;SDS_P1;SDS_P2;PMS_P1;PMS_P2;Temp;Humidity;BMP_temperature;BMP_pressure;BME280_temperature;BME280_humidity;BME280_pressure;Samples;Min_cycle;Max_cycle;Signal;HPM_P1;HPM_P2
2023/04/14 00:00:34;;;;;;;6.50;1.45;;;8.00;99.90;;;;;;1901389;75;21107;-83
2023/04/14 00:03:25;;;;;;;2.37;1.45;;;8.10;99.90;;;;;;1872332;76;21055;-83
2023/04/14 00:06:17;;;;;;;6.67;1.98;;;8.10;99.90;;;;;;1872336;75;21556;-83
2023/04/14 00:09:09;;;;;;;4.85;1.62;;;8.00;99.90;;;;;;1881281;75;21169;-83
2023/04/14 00:12:00;;;;;;;4.25;1.72;;;8.00;99.90;;;;;;1879530;75;21507;-83
2023/04/14 00:14:51;;;;;;;4.67;1.77;;;7.90;99.90;;;;;;1872349;76;21169;-83
2023/04/14 00:17:42;;;;;;;8.05;1.90;;;7.90;99.90;;;;;;1886559;75;21103;-83
2023/04/14 00:20:33;;;;;;;2.72;1.67;;;7.80;99.90;;;;;;1883069;75;21221;-83
2023/04/14 00:23:25;;;;;;;5.10;1.70;;;7.80;99.90;;;;;;1878464;75;21056;-82
2023/04/14 00:26:16;;;;;;;3.62;1.90;;;7.90;99.90;;;;;;1894179;75;21090;-83
2023/04/14 00:29:08;;;;;;;6.17;1.77;;;7.90;99.90;;;;;;1888596;75;21083;-83
2023/04/14 00:32:00;;;;;;;5.20;1.95;;;7.90;99.90;;;;;;1883175;75;21121;-83
2023/04/14 00:34:53;;;;;;;6.42;1.82;;;7.90;99.90;;;;;;1882353;75;21099;-83
2023/04/14 00:37:44;;;;;;;4.87;1.50;;;7.90;99.90;;;;;;1881494;75;21106;-83
2023/04/14 00:40:37;;;;;;;3.00;1.35;;;8.00;99.90;;;;;;1888996;75;21080;-83
2023/04/14 00:43:29;;;;;;;3.10;1.02;;;8.10;99.90;;;;;;1891383;75;21169;-83
2023/04/14 00:46:20;;;;;;;4.00;1.30;;;8.10;99.90;;;;;;1893126;75;21122;-83
2023/04/14 00:49:15;;;;;;;3.70;1.60;;;8.10;99.90;;;;;;1871763;75;21092;-83
2023/04/14 00:52:07;;;;;;;2.95;1.57;;;8.00;99.90;;;;;;1872030;77;21110;-83
2023/04/14 00:54:59;;;;;;;4.80;1.12;;;8.10;99.90;;;;;;1887409;75;21144;-83
2023/04/14 00:57:51;;;;;;;4.03;1.10;;;8.10;99.90;;;;;;1872556;75;21081;-83
2023/04/14 01:00:42;;;;;;;5.25;1.00;;;8.10;99.90;;;;;;1876803;75;21479;-83
2023/04/14 01:03:35;;;;;;;2.98;1.10;;;8.10;99.90;;;;;;1883358;75;21083;-83
2023/04/14 01:06:27;;;;;;;4.08;1.17;;;8.00;99.90;;;;;;1872047;76;21099;-83
2023/04/14 01:09:19;;;;;;;3.83;1.47;;;8.10;99.90;;;;;;1893555;75;21570;-83
2023/04/14 01:12:14;;;;;;;1.75;0.82;;;8.10;99.90;;;;;;1893571;75;21075;-83
2023/04/14 01:15:11;;;;;;;3.15;1.02;;;8.00;99.90;;;;;;1893633;75;21126;-83
2023/04/14 01:18:07;;;;;;;2.37;1.02;;;7.90;99.90;;;;;;1891446;75;21095;-85
2023/04/14 01:21:02;;;;;;;3.52;1.30;;;8.00;99.90;;;;;;1886552;75;21554;-83
2023/04/14 01:24:03;;;;;;;5.03;1.45;;;7.90;99.90;;;;;;1893484;75;21471;-83
2023/04/14 01:26:58;;;;;;;6.53;1.55;;;7.80;99.90;;;;;;1893437;75;21138;-83
2023/04/14 01:30:03;;;;;;;4.30;1.50;;;7.80;99.90;;;;;;1893485;75;21543;-83
2023/04/14 01:32:56;;;;;;;3.90;1.32;;;7.80;99.90;;;;;;1882156;75;21119;-83
2023/04/14 01:38:42;;;;;;;3.45;1.20;;;7.80;99.90;;;;;;1955401;72;22127;-84
2023/04/14 01:41:36;;;;;;;2.87;1.30;;;7.70;99.90;;;;;;1895943;74;21131;-84
2023/04/14 01:44:29;;;;;;;3.77;1.60;;;7.70;99.90;;;;;;1913704;75;21220;-84
2023/04/14 01:47:22;;;;;;;2.75;1.27;;;7.70;99.90;;;;;;1879609;76;21122;-84
2023/04/14 01:50:16;;;;;;;4.45;1.50;;;7.80;99.90;;;;;;1900053;75;21135;-83
2023/04/14 01:53:08;;;;;;;4.35;1.32;;;7.80;99.90;;;;;;1895168;75;21106;-83
2023/04/14 01:56:02;;;;;;;4.42;1.20;;;7.90;99.90;;;;;;1889518;75;21061;-83
2023/04/14 01:58:56;;;;;;;4.35;1.55;;;7.80;99.90;;;;;;1885013;75;21619;-85
2023/04/14 02:01:52;;;;;;;6.45;1.90;;;7.90;99.90;;;;;;1917086;75;21145;-83
2023/04/14 02:04:44;;;;;;;7.67;2.02;;;7.80;99.90;;;;;;1917179;75;21106;-83
2023/04/14 02:07:37;;;;;;;3.12;1.45;;;7.80;99.90;;;;;;1885201;75;21070;-83
2023/04/14 02:10:30;;;;;;;2.42;1.12;;;7.80;99.90;;;;;;1906058;75;21279;-83
2023/04/14 02:13:22;;;;;;;2.05;0.50;;;7.70;99.90;;;;;;1906197;75;21095;-83
2023/04/14 02:16:15;;;;;;;0.90;0.60;;;7.60;99.90;;;;;;1900299;75;21122;-83
2023/04/14 02:19:09;;;;;;;2.22;0.60;;;7.60;99.90;;;;;;1884337;76;21098;-83
2023/04/14 02:22:02;;;;;;;5.75;0.88;;;7.60;99.90;;;;;;1912861;75;21153;-84
2023/04/14 02:24:54;;;;;;;1.32;0.50;;;7.50;99.90;;;;;;1895249;75;22109;-83
2023/04/14 02:30:30;;;;;;;1.72;0.50;;;7.40;99.90;;;;;;1955480;72;22331;-82
2023/04/14 02:33:24;;;;;;;0.98;0.40;;;7.40;99.90;;;;;;1895907;74;21099;-82
2023/04/14 02:36:19;;;;;;;1.70;0.55;;;7.30;99.90;;;;;;1894947;75;21164;-83
2023/04/14 02:39:14;;;;;;;1.30;0.60;;;7.20;99.90;;;;;;1897603;75;21125;-82
2023/04/14 02:45:00;;;;;;;1.17;0.50;;;7.10;99.90;;;;;;1941265;72;22193;-84
2023/04/14 02:47:56;;;;;;;2.02;0.70;;;7.10;99.90;;;;;;1895156;75;21118;-83
2023/04/14 02:50:50;;;;;;;1.87;0.60;;;7.00;99.90;;;;;;1895097;75;21102;-83
2023/04/14 02:53:43;;;;;;;0.70;0.33;;;7.00;99.90;;;;;;1897485;75;21102;-83
2023/04/14 02:56:46;;;;;;;1.05;0.60;;;6.90;99.90;;;;;;1901406;75;21077;-83
2023/04/14 02:59:40;;;;;;;0.85;0.50;;;7.10;99.90;;;;;;1883946;76;21102;-85
2023/04/14 03:02:34;;;;;;;2.42;0.50;;;7.10;99.90;;;;;;1910227;74;21087;-83
2023/04/14 03:05:28;;;;;;;1.25;0.60;;;7.00;99.90;;;;;;1906108;75;21185;-85
2023/04/14 03:08:28;;;;;;;0.80;0.40;;;7.00;99.90;;;;;;1905984;75;21243;-84
2023/04/14 03:11:21;;;;;;;0.93;0.60;;;6.90;99.90;;;;;;1900344;75;21168;-84
2023/04/14 03:14:12;;;;;;;1.65;0.65;;;7.20;99.90;;;;;;1885158;74;21083;-84
2023/04/14 03:19:47;;;;;;;2.02;0.98;;;7.30;99.90;;;;;;1941780;72;22236;-83
2023/04/14 03:22:42;;;;;;;2.20;1.00;;;7.30;99.90;;;;;;1899615;75;21145;-84
2023/04/14 03:25:37;;;;;;;3.10;1.10;;;7.40;99.90;;;;;;1904645;75;21089;-83
2023/04/14 03:28:33;;;;;;;3.00;1.05;;;7.50;99.90;;;;;;1883416;75;21067;-83
2023/04/14 03:34:21;;;;;;;2.22;0.70;;;7.50;99.90;;;;;;1953389;72;22170;-84
2023/04/14 03:37:16;;;;;;;2.60;1.32;;;7.50;99.90;;;;;;1898899;75;21213;-84
2023/04/14 03:40:11;;;;;;;3.67;1.30;;;7.40;99.90;;;;;;1916843;75;21102;-83
2023/04/14 03:43:06;;;;;;;1.42;1.07;;;7.40;99.90;;;;;;1910003;75;21102;-83
2023/04/14 03:45:59;;;;;;;2.98;1.00;;;7.50;99.90;;;;;;1909085;75;21175;-85
2023/04/14 03:48:53;;;;;;;4.50;1.50;;;7.50;99.90;;;;;;1898359;75;21131;-83
2023/04/14 03:54:39;;;;;;;4.90;1.22;;;7.50;99.90;;;;;;1941798;72;22166;-82
2023/04/14 03:57:33;;;;;;;2.65;0.93;;;7.50;99.90;;;;;;1916940;75;21204;-82
2023/04/14 04:00:26;;;;;;;2.70;1.00;;;7.60;99.90;;;;;;1917085;75;21176;-83
2023/04/14 04:03:19;;;;;;;1.87;0.90;;;7.60;99.90;;;;;;1917192;75;21155;-83
2023/04/14 04:06:11;;;;;;;2.77;0.70;;;7.60;99.90;;;;;;1916693;75;21172;-82
2023/04/14 04:09:05;;;;;;;2.58;0.88;;;7.60;99.90;;;;;;1926397;73;21196;-82
2023/04/14 04:11:57;;;;;;;3.70;1.10;;;7.60;99.90;;;;;;1917118;75;21095;-85
2023/04/14 04:14:49;;;;;;;1.77;0.80;;;7.60;99.90;;;;;;1917208;75;21111;-85
2023/04/14 04:17:42;;;;;;;3.25;1.00;;;7.70;99.90;;;;;;1917145;75;21095;-83
2023/04/14 04:20:34;;;;;;;5.40;1.00;;;7.60;99.90;;;;;;1926657;73;21094;-83
2023/04/14 04:23:28;;;;;;;2.98;1.00;;;7.60;99.90;;;;;;1927992;73;21227;-85
2023/04/14 04:26:22;;;;;;;3.42;0.80;;;7.60;99.90;;;;;;1923768;73;21182;-83
2023/04/14 04:29:13;;;;;;;1.20;0.60;;;7.60;99.90;;;;;;1934151;73;21082;-83
2023/04/14 04:32:06;;;;;;;1.37;0.60;;;7.60;99.90;;;;;;1917051;75;21203;-83
2023/04/14 04:34:59;;;;;;;1.95;0.70;;;7.60;99.90;;;;;;1920518;73;21167;-82
2023/04/14 04:37:55;;;;;;;1.75;0.80;;;7.70;99.90;;;;;;1941347;73;21055;-83
2023/04/14 04:40:46;;;;;;;2.08;0.78;;;7.70;99.90;;;;;;1930906;73;21104;-82
2023/04/14 04:43:40;;;;;;;3.58;1.02;;;7.60;99.90;;;;;;1931761;73;21171;-83
2023/04/14 04:46:43;;;;;;;2.60;0.95;;;7.50;99.90;;;;;;1918759;73;21055;-83
2023/04/14 04:49:35;;;;;;;1.40;0.75;;;7.50;99.90;;;;;;1916957;75;21102;-85
2023/04/14 04:52:26;;;;;;;2.55;0.70;;;7.60;99.90;;;;;;1917069;75;21123;-82
2023/04/14 04:55:18;;;;;;;2.98;0.90;;;7.60;99.90;;;;;;1917153;75;21089;-85
2023/04/14 04:58:09;;;;;;;2.85;0.68;;;7.70;99.90;;;;;;1895709;75;21176;-83
2023/04/14 05:01:02;;;;;;;2.30;0.62;;;7.70;99.90;;;;;;1897390;74;21078;-83
2023/04/14 05:03:54;;;;;;;1.05;0.53;;;7.80;99.90;;;;;;1925940;73;21634;-83
2023/04/14 05:06:46;;;;;;;1.00;0.60;;;7.70;99.90;;;;;;1916343;75;21210;-82
2023/04/14 05:09:37;;;;;;;0.72;0.40;;;7.80;99.90;;;;;;1916856;74;21134;-82
2023/04/14 05:12:29;;;;;;;0.70;0.50;;;8.00;99.90;;;;;;1903915;75;21189;-82
2023/04/14 05:15:20;;;;;;;1.37;0.50;;;7.90;99.90;;;;;;1892148;75;21085;-82
2023/04/14 05:18:12;;;;;;;1.12;0.50;;;7.70;99.90;;;;;;1916383;75;21110;-82
2023/04/14 05:21:06;;;;;;;1.65;0.70;;;7.80;99.90;;;;;;1921164;74;21122;-83
2023/04/14 05:23:57;;;;;;;2.25;0.90;;;7.70;99.90;;;;;;1944985;73;21095;-83
2023/04/14 05:26:48;;;;;;;1.85;0.60;;;7.60;99.90;;;;;;1919054;74;21161;-82
2023/04/14 05:29:41;;;;;;;2.33;1.10;;;7.60;99.90;;;;;;1916844;73;21158;-85
2023/04/14 05:32:33;;;;;;;2.58;1.32;;;7.60;99.90;;;;;;1931508;73;21147;-82
2023/04/14 05:35:25;;;;;;;2.17;1.07;;;7.70;99.90;;;;;;1893366;75;21219;-84
2023/04/14 05:38:17;;;;;;;2.50;1.00;;;7.70;99.90;;;;;;1917266;74;21059;-83
2023/04/14 05:41:08;;;;;;;3.08;1.05;;;7.60;99.90;;;;;;1916373;75;21209;-83
2023/04/14 05:44:03;;;;;;;3.25;1.12;;;7.70;99.90;;;;;;1936042;73;21106;-83
2023/04/14 05:46:55;;;;;;;3.47;1.20;;;7.70;99.90;;;;;;1916203;75;21107;-83
2023/04/14 05:49:47;;;;;;;3.40;1.30;;;7.80;99.90;;;;;;1916148;75;21182;-83
2023/04/14 05:52:38;;;;;;;2.37;1.20;;;7.90;99.90;;;;;;1916021;75;21103;-83
2023/04/14 05:55:30;;;;;;;4.33;1.42;;;7.90;99.90;;;;;;1913526;75;21084;-83
2023/04/14 05:58:25;;;;;;;3.37;1.27;;;8.00;99.90;;;;;;1916378;75;21094;-83
2023/04/14 06:01:15;;;;;;;3.42;1.17;;;8.00;99.90;;;;;;1916321;75;21106;-83
2023/04/14 06:04:07;;;;;;;1.57;1.07;;;8.20;99.90;;;;;;1904236;74;21122;-83
2023/04/14 06:07:01;;;;;;;2.12;0.82;;;8.30;99.90;;;;;;1938952;73;21428;-83
2023/04/14 06:09:52;;;;;;;1.27;0.82;;;8.30;99.90;;;;;;1899334;75;21130;-82
2023/04/14 06:12:45;;;;;;;3.12;0.80;;;8.30;99.90;;;;;;1907456;75;21147;-82
2023/04/14 06:15:37;;;;;;;2.98;1.05;;;8.40;99.90;;;;;;1925506;73;21054;-82
2023/04/14 06:18:28;;;;;;;4.65;1.12;;;8.40;99.90;;;;;;1910709;74;21582;-84
2023/04/14 06:21:21;;;;;;;2.47;0.95;;;8.40;99.90;;;;;;1901285;74;21142;-83
2023/04/14 06:24:17;;;;;;;2.47;0.95;;;8.40;99.90;;;;;;1915730;74;21348;-84
2023/04/14 06:27:13;;;;;;;2.60;1.17;;;8.30;99.90;;;;;;1915967;75;21127;-83
2023/04/14 06:30:08;;;;;;;3.35;1.02;;;8.30;99.90;;;;;;1912008;74;21165;-83
2023/04/14 06:33:03;;;;;;;2.98;1.05;;;8.30;99.90;;;;;;1922809;73;21125;-82
2023/04/14 06:35:54;;;;;;;4.55;1.22;;;8.30;99.90;;;;;;1917845;74;21187;-82
2023/04/14 06:38:46;;;;;;;2.65;0.90;;;8.40;99.90;;;;;;1908028;75;21151;-82
2023/04/14 06:41:37;;;;;;;4.33;1.37;;;8.40;99.90;;;;;;1914742;74;21736;-82
2023/04/14 06:44:28;;;;;;;2.45;1.12;;;8.50;99.90;;;;;;1921334;73;21145;-83
2023/04/14 06:47:21;;;;;;;3.67;1.10;;;8.60;99.90;;;;;;1921166;73;21177;-83
2023/04/14 06:50:16;;;;;;;4.08;1.02;;;8.50;99.90;;;;;;1910219;74;21236;-83
2023/04/14 06:53:08;;;;;;;2.08;1.10;;;8.60;99.90;;;;;;1903625;74;21187;-83
2023/04/14 06:56:01;;;;;;;3.15;1.30;;;8.70;99.90;;;;;;1915079;73;21102;-83
2023/04/14 06:59:00;;;;;;;2.52;1.05;;;8.70;99.90;;;;;;1914264;73;21099;-83
2023/04/14 07:01:47;;;;;;;5.15;1.10;;;8.80;99.90;;;;;;1934462;73;21557;-83
2023/04/14 07:04:39;;;;;;;3.92;1.37;;;8.90;99.90;;;;;;1902537;75;21183;-83
2023/04/14 07:07:35;;;;;;;2.62;1.27;;;8.80;99.90;;;;;;1918597;74;21134;-83
2023/04/14 07:10:27;;;;;;;3.02;1.15;;;8.90;99.90;;;;;;1898097;73;21142;-83
2023/04/14 07:13:21;;;;;;;3.37;1.00;;;9.00;99.90;;;;;;1914185;73;21119;-83
2023/04/14 07:16:14;;;;;;;2.52;0.90;;;9.00;99.90;;;;;;1905404;74;21209;-83
2023/04/14 07:19:07;;;;;;;2.77;1.30;;;9.10;99.90;;;;;;1902953;73;21141;-83
2023/04/14 07:22:01;;;;;;;1.92;1.50;;;9.00;99.90;;;;;;1909796;73;21146;-83
2023/04/14 07:24:53;;;;;;;2.30;1.50;;;8.90;99.90;;;;;;1908461;73;21726;-82
2023/04/14 07:27:45;;;;;;;2.98;1.47;;;8.80;99.90;;;;;;1900740;74;21176;-82
2023/04/14 07:33:21;;;;;;;2.80;1.45;;;9.00;99.90;;;;;;1927261;72;22221;-84
2023/04/14 07:36:13;;;;;;;2.22;1.60;;;9.10;99.90;;;;;;1896007;75;21148;-84
2023/04/14 07:39:09;;;;;;;2.08;1.65;;;9.20;99.90;;;;;;1887113;75;21139;-84
2023/04/14 07:42:01;;;;;;;1.75;1.57;;;9.30;99.90;;;;;;1885420;75;21106;-83
2023/04/14 07:44:53;;;;;;;1.70;1.50;;;9.30;99.90;;;;;;1895979;75;21139;-83
2023/04/14 07:47:44;;;;;;;3.37;1.70;;;9.30;99.90;;;;;;1893605;75;21164;-84
2023/04/14 07:50:36;;;;;;;1.87;1.30;;;9.20;99.90;;;;;;1891553;75;21180;-83
2023/04/14 07:53:31;;;;;;;2.10;1.30;;;9.30;99.90;;;;;;1888597;75;21176;-84
2023/04/14 07:56:22;;;;;;;3.05;1.50;;;9.20;99.90;;;;;;1872263;76;21508;-84
2023/04/14 07:59:15;;;;;;;1.67;1.27;;;9.10;99.90;;;;;;1871443;75;21176;-83
2023/04/14 08:02:07;;;;;;;3.70;1.50;;;9.10;99.90;;;;;;1872851;75;21103;-83
2023/04/14 08:07:41;;;;;;;2.52;1.52;;;9.20;99.90;;;;;;1965523;72;22119;-84
2023/04/14 08:10:33;;;;;;;1.65;1.27;;;9.30;99.90;;;;;;1904595;74;21191;-84
2023/04/14 08:13:28;;;;;;;3.52;2.20;;;9.50;99.90;;;;;;1927166;74;21158;-83
2023/04/14 08:18:59;;;;;;;2.02;1.55;;;9.80;99.90;;;;;;1951495;72;22721;-84
2023/04/14 08:21:52;;;;;;;4.65;1.98;;;9.90;99.90;;;;;;1916702;75;21175;-84
2023/04/14 08:24:45;;;;;;;5.10;2.10;;;10.00;99.90;;;;;;1916609;75;21356;-84
2023/04/14 08:30:16;;;;;;;5.90;1.72;;;10.00;99.90;;;;;;1944909;72;22234;-84
2023/04/14 08:33:08;;;;;;;4.53;2.10;;;10.10;99.90;;;;;;1926415;73;21162;-83
2023/04/14 08:38:47;;;;;;;4.72;1.75;;;10.40;99.90;;;;;;1956633;72;22175;-84
2023/04/14 08:44:19;;;;;;;2.65;1.37;;;10.60;99.90;;;;;;1951051;72;22178;-84
2023/04/14 08:47:12;;;;;;;2.60;1.67;;;10.60;99.90;;;;;;1902749;75;21550;-83
2023/04/14 08:50:07;;;;;;;4.03;1.80;;;10.60;99.90;;;;;;1903590;73;21204;-83
2023/04/14 08:53:01;;;;;;;2.12;1.42;;;10.60;99.90;;;;;;1905875;75;21158;-84
2023/04/14 08:55:56;;;;;;;3.25;1.80;;;10.80;99.90;;;;;;1906009;75;21102;-83
2023/04/14 08:58:50;;;;;;;3.08;1.45;;;10.90;99.90;;;;;;1883808;75;21100;-83
2023/04/14 09:01:46;;;;;;;4.85;2.20;;;10.90;99.90;;;;;;1883957;76;21150;-83
2023/04/14 09:04:40;;;;;;;2.72;1.35;;;11.00;99.90;;;;;;1883363;75;21090;-84
2023/04/14 09:10:12;;;;;;;2.08;1.15;;;11.20;99.90;;;;;;1949769;72;22647;-84
2023/04/14 09:15:44;;;;;;;3.42;1.45;;;11.10;99.90;;;;;;1946009;72;22135;-85
2023/04/14 09:18:38;;;;;;;2.80;1.32;;;11.10;99.90;;;;;;1901443;74;21180;-83
2023/04/14 09:21:31;;;;;;;1.77;1.10;;;11.10;99.90;;;;;;1901943;75;21159;-84
2023/04/14 09:24:28;;;;;;;5.42;1.62;;;11.10;99.90;;;;;;1904253;75;21078;-83
2023/04/14 09:27:20;;;;;;;2.20;1.02;;;11.10;99.90;;;;;;1908734;75;21105;-83
2023/04/14 09:30:13;;;;;;;2.17;1.42;;;11.20;99.90;;;;;;1868714;76;21076;-84
2023/04/14 09:33:09;;;;;;;2.62;1.20;;;11.30;99.90;;;;;;1909434;75;21663;-83
2023/04/14 09:36:01;;;;;;;3.75;1.20;;;11.30;99.90;;;;;;1872320;76;21389;-83
2023/04/14 09:41:32;;;;;;;4.87;1.57;;;11.40;99.90;;;;;;1949504;72;22239;-84
2023/04/14 09:44:24;;;;;;;1.52;1.25;;;11.50;99.90;;;;;;1886652;75;21116;-83
2023/04/14 09:47:17;;;;;;;1.98;1.02;;;11.50;99.90;;;;;;1883679;76;21114;-84
2023/04/14 09:50:10;;;;;;;2.45;1.05;;;11.60;99.90;;;;;;1883140;73;21144;-84
2023/04/14 09:53:04;;;;;;;2.87;0.75;;;11.70;99.90;;;;;;1905473;75;21069;-84
2023/04/14 09:55:56;;;;;;;2.27;0.90;;;11.90;99.90;;;;;;1883531;75;21156;-84
2023/04/14 09:58:49;;;;;;;2.22;0.70;;;11.90;99.90;;;;;;1904386;75;21184;-84
2023/04/14 10:01:40;;;;;;;2.50;0.75;;;12.00;99.90;;;;;;1901151;75;21095;-83
2023/04/14 10:04:31;;;;;;;2.12;0.80;;;12.10;99.90;;;;;;1894705;73;21133;-84
2023/04/14 10:07:24;;;;;;;1.67;0.88;;;12.20;99.90;;;;;;1905458;75;21125;-84
2023/04/14 10:10:16;;;;;;;2.17;0.80;;;12.30;99.90;;;;;;1902671;75;21199;-83
2023/04/14 10:15:50;;;;;;;3.27;0.70;;;12.30;99.90;;;;;;1962826;72;22209;-84
2023/04/14 10:18:42;;;;;;;3.17;0.88;;;12.20;99.90;;;;;;1914809;73;21152;-83
2023/04/14 10:21:33;;;;;;;2.40;1.02;;;12.10;99.90;;;;;;1916567;75;21086;-83
2023/04/14 10:24:25;;;;;;;1.52;0.80;;;11.90;99.90;;;;;;1934732;73;21135;-82
2023/04/14 10:27:17;;;;;;;2.35;0.70;;;12.00;99.90;;;;;;1929956;73;21455;-83
2023/04/14 10:30:10;;;;;;;1.65;0.88;;;12.30;99.90;;;;;;1947575;73;21574;-83
2023/04/14 10:33:02;;;;;;;0.98;0.62;;;12.60;99.90;;;;;;1924381;73;21197;-83
2023/04/14 10:35:57;;;;;;;4.30;0.93;;;12.70;99.90;;;;;;1937205;73;21106;-83
2023/04/14 10:38:49;;;;;;;1.72;0.82;;;12.70;99.90;;;;;;1934727;73;21206;-83
2023/04/14 10:41:47;;;;;;;2.40;0.65;;;12.80;99.90;;;;;;1927361;73;21094;-83
2023/04/14 10:44:40;;;;;;;1.70;0.72;;;12.90;99.90;;;;;;1920703;73;21086;-83
2023/04/14 10:47:34;;;;;;;2.15;0.98;;;13.00;99.90;;;;;;1918116;73;21112;-83
2023/04/14 10:50:27;;;;;;;1.52;0.80;;;13.20;99.90;;;;;;1916886;75;21527;-84
2023/04/14 10:53:19;;;;;;;1.10;0.80;;;13.40;99.90;;;;;;1916831;75;21597;-83
2023/04/14 10:56:10;;;;;;;1.87;0.70;;;13.60;99.90;;;;;;1916846;75;21557;-83
2023/04/14 10:59:03;;;;;;;1.22;0.62;;;13.80;99.90;;;;;;1942792;73;21534;-83
2023/04/14 11:04:41;;;;;;;4.45;0.80;;;13.80;99.90;;;;;;1939799;72;22175;-85
2023/04/14 11:07:39;;;;;;;2.80;0.62;;;13.70;99.90;;;;;;1884116;75;21129;-84
2023/04/14 11:10:32;;;;;;;1.57;0.60;;;13.80;99.90;;;;;;1883271;75;21116;-84
2023/04/14 11:13:24;;;;;;;2.42;0.62;;;13.90;99.90;;;;;;1883151;75;21095;-83
2023/04/14 11:16:17;;;;;;;1.57;0.53;;;14.20;99.90;;;;;;1886896;75;21128;-83
2023/04/14 11:19:15;;;;;;;1.30;0.60;;;14.30;99.90;;;;;;1884797;75;21139;-83
2023/04/14 11:22:07;;;;;;;3.33;0.55;;;14.60;99.90;;;;;;1874696;75;21069;-83
2023/04/14 11:24:58;;;;;;;3.12;0.65;;;14.50;97.70;;;;;;1872439;76;21098;-83
2023/04/14 11:27:50;;;;;;;5.17;0.90;;;14.60;98.70;;;;;;1892218;75;21128;-84
2023/04/14 11:30:43;;;;;;;1.87;0.65;;;14.60;99.90;;;;;;1887120;75;21070;-83
2023/04/14 11:33:37;;;;;;;2.52;0.93;;;14.50;99.40;;;;;;1874746;75;21119;-83
2023/04/14 11:39:10;;;;;;;1.75;0.78;;;14.90;99.90;;;;;;1953676;72;22169;-83
2023/04/14 11:42:12;;;;;;;1.62;0.60;;;15.00;99.40;;;;;;1904200;75;21106;-84
2023/04/14 11:45:06;;;;;;;5.28;0.80;;;14.60;99.70;;;;;;1916992;74;21091;-83
2023/04/14 11:48:03;;;;;;;1.02;0.60;;;14.70;99.90;;;;;;1907679;74;21056;-84
2023/04/14 11:50:55;;;;;;;1.95;0.82;;;14.80;99.60;;;;;;1930029;74;21131;-84
2023/04/14 11:53:46;;;;;;;1.80;0.72;;;14.60;99.90;;;;;;1917462;74;21199;-84
2023/04/14 11:56:38;;;;;;;1.80;0.50;;;14.50;99.90;;;;;;1904661;75;21048;-86
2023/04/14 11:59:29;;;;;;;0.72;0.47;;;14.30;99.90;;;;;;1914786;74;21169;-85
2023/04/14 12:02:21;;;;;;;0.80;0.50;;;14.10;99.90;;;;;;1910480;74;21099;-84
2023/04/14 12:07:59;;;;;;;0.85;0.42;;;14.10;99.90;;;;;;1954896;72;22625;-85
2023/04/14 12:10:52;;;;;;;1.10;0.50;;;14.00;99.90;;;;;;1895297;74;21131;-84
2023/04/14 12:13:46;;;;;;;2.00;0.50;;;14.00;99.90;;;;;;1911433;75;21538;-85
2023/04/14 12:16:37;;;;;;;1.07;0.47;;;14.00;99.90;;;;;;1906180;75;21117;-84
2023/04/14 12:19:29;;;;;;;0.60;0.35;;;14.00;99.90;;;;;;1902885;75;21121;-84
2023/04/14 12:22:26;;;;;;;2.20;0.50;;;14.00;99.90;;;;;;1883858;75;21092;-84
2023/04/14 12:25:18;;;;;;;2.15;0.50;;;13.90;99.90;;;;;;1891786;75;21043;-84
2023/04/14 12:28:11;;;;;;;1.25;0.33;;;13.90;99.90;;;;;;1892432;75;21142;-84
2023/04/14 12:31:04;;;;;;;0.30;0.20;;;14.00;99.90;;;;;;1884056;76;21158;-86
2023/04/14 12:34:02;;;;;;;3.45;0.60;;;14.00;99.90;;;;;;1885732;75;21156;-84
2023/04/14 12:36:54;;;;;;;3.30;0.53;;;14.10;99.90;;;;;;1883988;75;21162;-84
2023/04/14 12:39:56;;;;;;;0.98;0.40;;;14.50;99.90;;;;;;1889985;75;21091;-84
2023/04/14 12:42:48;;;;;;;1.87;0.40;;;14.70;99.90;;;;;;1895067;75;21118;-84
2023/04/14 12:45:49;;;;;;;1.47;0.40;;;14.70;99.90;;;;;;1896793;75;21179;-84
2023/04/14 12:48:45;;;;;;;4.05;0.47;;;14.50;98.90;;;;;;1896702;75;21490;-84
2023/04/14 12:51:40;;;;;;;0.95;0.30;;;14.30;99.60;;;;;;1896825;75;21098;-84
2023/04/14 12:57:27;;;;;;;0.60;0.40;;;14.40;99.40;;;;;;1937659;72;22125;-85
2023/04/14 13:00:20;;;;;;;0.88;0.40;;;14.50;98.90;;;;;;1884707;75;21169;-84
2023/04/14 13:05:51;;;;;;;0.30;0.20;;;14.60;98.20;;;;;;1923159;72;23165;-85
2023/04/14 13:11:26;;;;;;;1.27;0.40;;;14.60;98.50;;;;;;1950262;72;22167;-84
2023/04/14 13:14:19;;;;;;;1.37;0.40;;;14.80;98.80;;;;;;1884500;75;21142;-84
2023/04/14 13:17:11;;;;;;;1.90;0.50;;;15.00;98.40;;;;;;1882693;75;21343;-83
2023/04/14 13:20:02;;;;;;;2.22;0.33;;;15.20;97.70;;;;;;1882343;75;21591;-85
2023/04/14 13:22:54;;;;;;;1.02;0.40;;;15.00;97.90;;;;;;1885228;75;21586;-83
2023/04/14 13:25:46;;;;;;;1.42;0.53;;;15.10;98.50;;;;;;1886127;75;21099;-83
2023/04/14 13:28:37;;;;;;;1.90;0.60;;;15.10;97.30;;;;;;1882876;75;21136;-83
2023/04/14 13:31:29;;;;;;;2.20;0.60;;;15.00;97.30;;;;;;1882550;75;21655;-83
2023/04/14 13:37:01;;;;;;;0.72;0.40;;;15.00;96.60;;;;;;1942427;72;22163;-83
2023/04/14 13:39:53;;;;;;;1.30;0.35;;;15.20;95.60;;;;;;1890141;75;21176;-86
2023/04/14 13:42:45;;;;;;;0.90;0.68;;;15.10;94.40;;;;;;1894920;75;21187;-84
2023/04/14 13:45:36;;;;;;;2.00;0.47;;;14.90;95.80;;;;;;1916747;75;21086;-84
2023/04/14 13:48:28;;;;;;;2.55;0.42;;;14.70;96.00;;;;;;1916758;73;21056;-84
2023/04/14 13:51:19;;;;;;;1.10;0.47;;;14.60;95.80;;;;;;1894627;75;21715;-83
2023/04/14 13:54:11;;;;;;;0.78;0.30;;;14.70;95.90;;;;;;1894263;75;21167;-83
2023/04/14 13:57:04;;;;;;;2.02;1.20;;;15.00;96.10;;;;;;1897886;75;21182;-83
2023/04/14 13:59:55;;;;;;;0.75;0.60;;;15.20;96.00;;;;;;1897887;75;21143;-84
2023/04/14 14:02:47;;;;;;;1.30;0.40;;;15.40;95.60;;;;;;1894962;75;21059;-83
2023/04/14 14:05:39;;;;;;;2.37;0.50;;;15.40;96.10;;;;;;1911382;75;21097;-83
2023/04/14 14:08:31;;;;;;;1.00;0.40;;;15.50;95.90;;;;;;1893919;75;21185;-83
2023/04/14 14:11:22;;;;;;;1.05;0.42;;;15.00;95.50;;;;;;1900922;75;21082;-84
2023/04/14 14:14:14;;;;;;;2.70;0.70;;;14.90;96.60;;;;;;1904609;75;21221;-83
2023/04/14 14:17:07;;;;;;;0.85;0.30;;;15.00;96.90;;;;;;1883534;75;21159;-84
2023/04/14 14:19:59;;;;;;;1.02;0.50;;;14.70;96.20;;;;;;1885732;75;21191;-83
2023/04/14 14:22:51;;;;;;;0.85;0.47;;;14.60;97.00;;;;;;1896235;75;21109;-83
2023/04/14 14:25:42;;;;;;;0.30;0.20;;;14.40;97.70;;;;;;1897554;75;21064;-83
2023/04/14 14:28:34;;;;;;;1.20;0.40;;;14.20;98.60;;;;;;1894633;75;21176;-83
2023/04/14 14:31:25;;;;;;;1.05;0.40;;;14.10;98.30;;;;;;1894556;75;21216;-84
2023/04/14 14:36:56;;;;;;;1.47;0.50;;;13.90;99.40;;;;;;1962528;72;22201;-83
2023/04/14 14:39:48;;;;;;;0.45;0.42;;;13.90;99.90;;;;;;1905481;74;21537;-85
2023/04/14 14:42:39;;;;;;;2.75;1.67;;;13.90;99.90;;;;;;1904406;75;21103;-85
2023/04/14 14:45:31;;;;;;;1.98;0.53;;;13.90;99.90;;;;;;1904443;75;21160;-83
2023/04/14 14:48:24;;;;;;;1.22;0.50;;;13.80;99.90;;;;;;1904414;74;21078;-83
2023/04/14 14:51:16;;;;;;;2.75;0.70;;;13.80;99.90;;;;;;1904253;75;21660;-84
2023/04/14 14:54:07;;;;;;;2.75;0.42;;;13.70;99.90;;;;;;1903846;75;21179;-84
2023/04/14 14:59:41;;;;;;;1.22;0.40;;;13.60;99.90;;;;;;1954940;72;22190;-85
2023/04/14 15:02:32;;;;;;;2.12;0.33;;;13.70;99.90;;;;;;1887722;74;21225;-85
2023/04/14 15:05:24;;;;;;;0.70;0.30;;;13.80;99.90;;;;;;1905536;75;21098;-84
2023/04/14 15:08:15;;;;;;;1.12;0.30;;;13.80;99.90;;;;;;1902966;75;21144;-84
2023/04/14 15:11:07;;;;;;;1.82;0.37;;;13.90;99.90;;;;;;1884198;75;21134;-84
2023/04/14 15:13:59;;;;;;;1.42;0.65;;;13.90;99.90;;;;;;1914733;75;21163;-86
2023/04/14 15:16:50;;;;;;;1.25;0.30;;;13.90;99.90;;;;;;1913056;75;21188;-86
2023/04/14 15:19:43;;;;;;;0.90;0.23;;;14.00;99.90;;;;;;1885270;73;21094;-84
2023/04/14 15:22:35;;;;;;;0.40;0.20;;;14.00;99.90;;;;;;1899389;75;21191;-84
2023/04/14 15:25:26;;;;;;;0.60;0.30;;;14.00;99.90;;;;;;1916609;75;21071;-84
2023/04/14 15:28:18;;;;;;;1.30;0.23;;;13.90;99.90;;;;;;1894473;75;21094;-84
2023/04/14 15:31:09;;;;;;;0.93;0.30;;;13.90;99.90;;;;;;1894771;75;21806;-84
2023/04/14 15:34:00;;;;;;;1.15;0.20;;;13.70;99.90;;;;;;1902347;75;21153;-84
2023/04/14 15:36:52;;;;;;;1.17;0.28;;;13.70;99.90;;;;;;1895997;75;21098;-84
2023/04/14 15:39:44;;;;;;;0.40;0.20;;;13.70;99.90;;;;;;1894421;75;21197;-84
2023/04/14 15:42:36;;;;;;;0.33;0.23;;;13.80;99.90;;;;;;1892837;75;21224;-84
2023/04/14 15:45:27;;;;;;;0.93;0.33;;;13.80;99.90;;;;;;1902376;75;21115;-85
2023/04/14 15:48:19;;;;;;;1.52;0.40;;;13.80;99.90;;;;;;1906165;75;21533;-85
2023/04/14 15:51:11;;;;;;;0.88;0.20;;;13.90;99.90;;;;;;1901550;75;21121;-84
2023/04/14 15:54:02;;;;;;;0.98;0.30;;;14.00;99.90;;;;;;1910314;75;21102;-85
2023/04/14 15:56:54;;;;;;;0.50;0.20;;;14.10;99.90;;;;;;1903212;75;21074;-84
2023/04/14 15:59:46;;;;;;;0.90;0.30;;;14.20;99.90;;;;;;1898471;75;21180;-85
2023/04/14 16:02:38;;;;;;;0.65;0.35;;;14.30;99.90;;;;;;1893137;75;21047;-85
2023/04/14 16:05:30;;;;;;;0.53;0.20;;;14.40;99.90;;;;;;1905202;75;21106;-85
2023/04/14 16:08:21;;;;;;;1.65;0.40;;;14.40;99.90;;;;;;1903917;75;21486;-85
2023/04/14 16:11:16;;;;;;;0.80;0.37;;;14.40;99.90;;;;;;1900787;75;21168;-84
2023/04/14 16:14:07;;;;;;;1.62;0.40;;;14.40;99.90;;;;;;1905470;75;21156;-84